createdAt,value
2023-03-08T00:01:23.523Z,98451.48
2023-03-08T00:03:54.645Z,98446.14
2023-03-08T00:06:23.029Z,98446.59
2023-03-08T00:08:58.404Z,98443.86
2023-03-08T00:11:29.448Z,98439.65
2023-03-08T00:13:58.270Z,98434.94
2023-03-08T00:16:26.318Z,98429.01
2023-03-08T00:18:56.396Z,98423.79
2023-03-08T00:21:24.495Z,98416.64
2023-03-08T00:23:55.206Z,98416.27
2023-03-08T00:26:23.692Z,98414.73
2023-03-08T00:28:53.101Z,98421.98
2023-03-08T00:31:22.480Z,98418.27
2023-03-08T00:33:54.978Z,98416.36
2023-03-08T00:36:26.001Z,98419.04
2023-03-08T00:38:54.299Z,98410.96
2023-03-08T00:41:22.768Z,98413.11
2023-03-08T00:43:51.422Z,98402.73
2023-03-08T00:46:19.918Z,98393.80
2023-03-08T00:48:49.808Z,98389.44
2023-03-08T00:51:19.546Z,98389.59
2023-03-08T00:53:48.512Z,98388.06
2023-03-08T00:56:16.947Z,98382.91
2023-03-08T00:58:45.116Z,98374.44
2023-03-08T01:01:17.814Z,98368.41
2023-03-08T01:03:48.351Z,98367.48
2023-03-08T01:06:17.744Z,98369.44
2023-03-08T01:08:46.875Z,98361.35
2023-03-08T01:11:20.250Z,98356.73
2023-03-08T01:13:49.102Z,98355.02
2023-03-08T01:16:24.179Z,98358.38
2023-03-08T01:18:52.766Z,98363.66
2023-03-08T01:21:21.875Z,98364.31
2023-03-08T01:23:50.359Z,98359.83
2023-03-08T01:26:20.772Z,98356.75
2023-03-08T01:28:49.194Z,98347.10
2023-03-08T01:31:19.577Z,98347.21
2023-03-08T01:33:49.187Z,98345.94
2023-03-08T01:36:19.156Z,98342.25
2023-03-08T01:38:47.640Z,98345.23
2023-03-08T01:41:18.473Z,98339.84
2023-03-08T01:43:49.893Z,98349.40
2023-03-08T01:46:37.262Z,98351.26
2023-03-08T01:49:33.651Z,98353.55
2023-03-08T01:52:13.183Z,98345.88
2023-03-08T01:55:06.443Z,98341.23
2023-03-08T01:57:42.749Z,98338.58
2023-03-08T02:00:18.399Z,98336.88
2023-03-08T02:02:52.458Z,98339.77
2023-03-08T02:05:21.059Z,98339.12
2023-03-08T02:07:54.141Z,98340.83
2023-03-08T02:10:26.733Z,98336.98
2023-03-08T02:12:58.710Z,98335.44
2023-03-08T02:15:28.109Z,98337.10
2023-03-08T02:17:58.166Z,98341.84
2023-03-08T02:20:32.612Z,98338.32
2023-03-08T02:23:30.591Z,98336.56
2023-03-08T02:26:03.539Z,98343.33
2023-03-08T02:28:31.589Z,98338.38
2023-03-08T02:30:59.838Z,98337.37
2023-03-08T02:33:28.433Z,98333.10
2023-03-08T02:35:58.553Z,98331.23
2023-03-08T02:38:34.751Z,98329.63
2023-03-08T02:41:02.893Z,98326.81
2023-03-08T02:43:31.391Z,98324.19
2023-03-08T02:46:00.078Z,98324.02
2023-03-08T02:48:28.467Z,98326.75
2023-03-08T02:50:59.929Z,98324.13
2023-03-08T02:53:29.878Z,98323.06
2023-03-08T02:55:58.283Z,98323.65
2023-03-08T02:58:26.499Z,98327.80
2023-03-08T03:00:54.972Z,98325.04
2023-03-08T03:03:24.747Z,98317.98
2023-03-08T03:05:52.937Z,98320.02
2023-03-08T03:08:32.267Z,98317.73
2023-03-08T03:11:00.705Z,98317.50
2023-03-08T03:13:30.124Z,98308.85
2023-03-08T03:15:59.039Z,98309.71
2023-03-08T03:18:28.788Z,98313.93
2023-03-08T03:21:03.433Z,98313.56
2023-03-08T03:23:33.750Z,98307.31
2023-03-08T03:26:06.824Z,98308.65
2023-03-08T03:28:35.203Z,98305.30
2023-03-08T03:31:08.069Z,98306.20
2023-03-08T03:33:36.367Z,98300.27
2023-03-08T03:36:06.077Z,98304.97
2023-03-08T03:38:35.176Z,98294.83
2023-03-08T03:41:05.079Z,98285.45
2023-03-08T03:43:34.598Z,98285.13
2023-03-08T03:46:06.425Z,98284.38
2023-03-08T03:48:35.990Z,98277.98
2023-03-08T03:51:06.830Z,98271.95
2023-03-08T03:53:35.972Z,98269.08
2023-03-08T03:56:04.197Z,98274.19
2023-03-08T03:58:32.837Z,98274.93
2023-03-08T04:01:14.907Z,98278.41
2023-03-08T04:03:43.656Z,98270.08
2023-03-08T04:06:20.672Z,98272.96
2023-03-08T04:08:53.012Z,98271.59
2023-03-08T04:11:24.178Z,98269.23
2023-03-08T04:13:53.258Z,98262.36
2023-03-08T04:16:30.014Z,98254.20
2023-03-08T04:19:03.701Z,98249.39
2023-03-08T04:21:32.442Z,98246.46
2023-03-08T04:24:01.392Z,98249.33
2023-03-08T04:26:30.029Z,98245.64
2023-03-08T04:29:06.127Z,98241.92
2023-03-08T04:31:35.334Z,98242.29
2023-03-08T04:34:06.370Z,98238.87
2023-03-08T04:36:35.526Z,98235.14
2023-03-08T04:39:03.968Z,98238.19
2023-03-08T04:41:34.841Z,98237.45
2023-03-08T04:44:10.903Z,98241.34
2023-03-08T04:46:43.141Z,98245.40
2023-03-08T04:49:13.910Z,98245.65
2023-03-08T04:51:44.848Z,98244.38
2023-03-08T04:54:13.148Z,98250.45
2023-03-08T04:56:46.384Z,98250.23
2023-03-08T04:59:22.811Z,98252.69
2023-03-08T05:01:52.850Z,98235.46
2023-03-08T05:04:21.807Z,98235.35
2023-03-08T05:06:49.879Z,98230.81
2023-03-08T05:09:21.946Z,98229.52
2023-03-08T05:11:52.237Z,98221.94
2023-03-08T05:14:21.826Z,98224.75
2023-03-08T05:16:50.695Z,98220.16
2023-03-08T05:19:18.958Z,98222.14
2023-03-08T05:21:50.876Z,98220.70
2023-03-08T05:24:18.989Z,98223.78
2023-03-08T05:26:46.971Z,98223.73
2023-03-08T05:29:18.310Z,98225.21
2023-03-08T05:31:50.514Z,98223.63
2023-03-08T05:34:18.864Z,98212.04
2023-03-08T05:36:48.824Z,98217.63
2023-03-08T05:39:20.038Z,98216.55
2023-03-08T05:41:54.973Z,98217.34
2023-03-08T05:44:27.960Z,98216.69
2023-03-08T05:46:56.502Z,98209.84
2023-03-08T05:49:26.512Z,98210.16
2023-03-08T05:51:54.932Z,98209.23
2023-03-08T05:54:23.827Z,98200.00
2023-03-08T05:56:53.705Z,98201.91
2023-03-08T05:59:27.443Z,98198.42
2023-03-08T06:01:59.650Z,98203.41
2023-03-08T06:04:49.315Z,98211.30
2023-03-08T06:07:22.779Z,98205.98
2023-03-08T06:10:02.691Z,98196.86
2023-03-08T06:12:35.624Z,98199.55
2023-03-08T06:15:06.154Z,98190.86
2023-03-08T06:17:41.270Z,98185.45
2023-03-08T06:20:11.226Z,98178.48
2023-03-08T06:22:41.650Z,98178.30
2023-03-08T06:25:11.632Z,98179.45
2023-03-08T06:27:40.979Z,98182.45
2023-03-08T06:30:21.131Z,98184.22
2023-03-08T06:32:49.705Z,98187.17
2023-03-08T06:35:17.935Z,98186.90
2023-03-08T06:37:50.005Z,98186.04
2023-03-08T06:40:18.375Z,98186.55
2023-03-08T06:42:46.455Z,98188.77
2023-03-08T06:45:16.151Z,98191.56
2023-03-08T06:47:44.318Z,98192.30
2023-03-08T06:50:14.015Z,98191.23
2023-03-08T06:52:43.633Z,98189.77
2023-03-08T06:55:12.048Z,98190.14
2023-03-08T06:57:40.817Z,98191.00
2023-03-08T07:00:14.647Z,98189.95
2023-03-08T07:02:43.437Z,98192.99
2023-03-08T07:05:11.550Z,98193.79
2023-03-08T07:07:42.290Z,98188.59
2023-03-08T07:10:11.911Z,98187.91
2023-03-08T07:12:43.698Z,98186.89
2023-03-08T07:15:14.671Z,98177.77
2023-03-08T07:17:45.879Z,98176.70
2023-03-08T07:20:14.431Z,98172.67
2023-03-08T07:22:48.514Z,98174.41
2023-03-08T07:25:18.238Z,98177.32
2023-03-08T07:27:47.196Z,98171.27
2023-03-08T07:30:15.816Z,98165.33
2023-03-08T07:32:44.063Z,98161.70
2023-03-08T07:35:14.164Z,98148.47
2023-03-08T07:37:46.856Z,98152.19
2023-03-08T07:40:16.385Z,98170.72
2023-03-08T07:42:46.053Z,98170.77
2023-03-08T07:45:34.429Z,98168.30
2023-03-08T07:48:03.185Z,98166.79
2023-03-08T07:50:31.488Z,98162.23
2023-03-08T07:53:03.437Z,98163.60
2023-03-08T07:55:34.402Z,98154.61
2023-03-08T07:58:02.981Z,98155.64
2023-03-08T08:00:31.350Z,98150.33
2023-03-08T08:02:59.908Z,98153.79
2023-03-08T08:05:28.660Z,98145.65
2023-03-08T08:07:59.892Z,98149.88
2023-03-08T08:10:29.488Z,98145.11
2023-03-08T08:12:58.683Z,98144.02
2023-03-08T08:15:27.500Z,98145.80
2023-03-08T08:17:59.754Z,98140.86
2023-03-08T08:20:28.799Z,98138.45
2023-03-08T08:22:57.429Z,98137.91
2023-03-08T08:25:25.506Z,98137.09
2023-03-08T08:27:54.150Z,98145.08
2023-03-08T08:30:22.282Z,98144.13
2023-03-08T08:32:53.429Z,98146.20
2023-03-08T08:35:22.773Z,98145.67
2023-03-08T08:37:52.345Z,98147.71
2023-03-08T08:40:20.608Z,98151.71
2023-03-08T08:42:48.684Z,98152.66
2023-03-08T08:45:17.197Z,98152.16
2023-03-08T08:47:45.628Z,98153.47
2023-03-08T08:50:14.326Z,98153.39
2023-03-08T08:52:42.634Z,98151.09
2023-03-08T08:55:17.670Z,98155.05
2023-03-08T08:57:45.883Z,98147.99
2023-03-08T09:00:15.031Z,98148.32
2023-03-08T09:02:43.150Z,98151.05
2023-03-08T09:05:12.979Z,98149.48
2023-03-08T09:07:41.571Z,98147.25
2023-03-08T09:10:10.110Z,98147.02
2023-03-08T09:12:38.613Z,98140.96
2023-03-08T09:15:10.295Z,98131.30
2023-03-08T09:17:39.761Z,98129.33
2023-03-08T09:20:16.472Z,98128.89
2023-03-08T09:22:45.753Z,98127.64
2023-03-08T09:25:14.346Z,98133.15
2023-03-08T09:27:43.264Z,98134.65
2023-03-08T09:30:13.966Z,98132.98
2023-03-08T09:32:48.383Z,98134.86
2023-03-08T09:35:17.433Z,98121.96
2023-03-08T09:37:45.745Z,98131.36
2023-03-08T09:40:19.215Z,98122.58
2023-03-08T09:42:47.575Z,98126.02
2023-03-08T09:45:23.315Z,98129.89
2023-03-08T09:48:13.474Z,98132.70
2023-03-08T09:50:46.279Z,98139.02
2023-03-08T09:53:17.450Z,98139.02
2023-03-08T09:55:54.813Z,98135.53
2023-03-08T09:58:35.546Z,98137.69
2023-03-08T10:01:15.907Z,98140.92
2023-03-08T10:04:23.426Z,98155.00
2023-03-08T10:06:57.194Z,98161.64
2023-03-08T10:09:34.625Z,98153.22
2023-03-08T10:12:13.462Z,98161.52
2023-03-08T10:14:44.191Z,98165.50
2023-03-08T10:17:17.384Z,98153.79
2023-03-08T10:20:14.561Z,98143.88
2023-03-08T10:22:46.880Z,98127.92
2023-03-08T10:25:26.602Z,98128.25
2023-03-08T10:27:56.627Z,98125.05
2023-03-08T10:30:33.156Z,98126.38
2023-03-08T10:33:03.547Z,98131.50
2023-03-08T10:35:44.114Z,98128.16
2023-03-08T10:38:16.576Z,98125.58
2023-03-08T10:40:45.656Z,98126.56
2023-03-08T10:43:41.310Z,98126.33
2023-03-08T10:46:17.482Z,98114.48
2023-03-08T10:48:45.893Z,98121.89
2023-03-08T10:51:22.196Z,98119.23
2023-03-08T10:54:02.758Z,98124.04
2023-03-08T10:56:59.989Z,98121.89
2023-03-08T10:59:33.249Z,98119.93
2023-03-08T11:02:03.667Z,98115.80
2023-03-08T11:04:32.261Z,98120.66
2023-03-08T11:07:10.673Z,98118.41
2023-03-08T11:09:42.391Z,98111.20
2023-03-08T11:12:21.255Z,98116.79
2023-03-08T11:14:52.683Z,98120.06
2023-03-08T11:17:28.299Z,98118.41
2023-03-08T11:20:08.101Z,98103.92
2023-03-08T11:23:16.382Z,98094.67
2023-03-08T11:25:50.754Z,98101.16
2023-03-08T11:29:13.038Z,98097.79
2023-03-08T11:31:58.646Z,98099.15
2023-03-08T11:34:40.213Z,98104.88
2023-03-08T11:37:23.363Z,98106.85
2023-03-08T11:40:16.673Z,98097.10
2023-03-08T11:43:11.528Z,98098.16
2023-03-08T11:46:30.935Z,98093.95
2023-03-08T11:49:18.803Z,98076.96
2023-03-08T11:52:39.172Z,98068.22
2023-03-08T11:55:22.615Z,98069.21
2023-03-08T11:58:24.730Z,98062.17
2023-03-08T12:01:05.292Z,98059.61
2023-03-08T12:03:35.536Z,98063.61
2023-03-08T12:06:40.980Z,98059.86
2023-03-08T12:09:23.690Z,98067.45
2023-03-08T12:11:56.402Z,98070.08
2023-03-08T12:14:30.638Z,98072.70
2023-03-08T12:17:13.683Z,98086.21
2023-03-08T12:19:46.387Z,98079.60
2023-03-08T12:22:33.757Z,98070.02
2023-03-08T12:25:09.905Z,98077.66
2023-03-08T12:27:44.551Z,98079.67
2023-03-08T12:30:40.569Z,98078.59
2023-03-08T12:33:11.400Z,98082.29
2023-03-08T12:35:51.156Z,98081.84
2023-03-08T12:38:20.159Z,98087.27
2023-03-08T12:40:50.867Z,98070.60
2023-03-08T12:43:22.433Z,98075.60
2023-03-08T12:45:59.940Z,98087.11
2023-03-08T12:48:32.074Z,98082.65
2023-03-08T12:51:02.350Z,98075.93
2023-03-08T12:53:38.310Z,98090.80
2023-03-08T12:56:09.319Z,98094.56
2023-03-08T12:59:01.162Z,98109.29
2023-03-08T13:01:32.521Z,98102.92
2023-03-08T13:04:04.485Z,98105.80
2023-03-08T13:07:09.879Z,98099.77
2023-03-08T13:09:47.046Z,98100.41
2023-03-08T13:12:16.980Z,98093.79
2023-03-08T13:15:24.751Z,98086.56
2023-03-08T13:18:00.884Z,98086.28
2023-03-08T13:20:36.299Z,98088.89
2023-03-08T13:23:08.622Z,98089.69
2023-03-08T13:26:06.199Z,98090.91
2023-03-08T13:28:47.078Z,98102.11
2023-03-08T13:31:24.528Z,98097.90
2023-03-08T13:33:55.772Z,98097.73
2023-03-08T13:36:29.197Z,98113.17
2023-03-08T13:39:01.635Z,98104.77
2023-03-08T13:41:39.057Z,98099.81
2023-03-08T13:44:19.522Z,98102.35
2023-03-08T13:46:49.492Z,98101.35
2023-03-08T13:49:27.069Z,98098.71
2023-03-08T13:52:00.392Z,98092.55
2023-03-08T13:54:37.551Z,98093.31
2023-03-08T13:57:07.623Z,98087.32
2023-03-08T13:59:38.158Z,98093.67
2023-03-08T14:02:26.922Z,98089.59
2023-03-08T14:04:55.470Z,98084.85
2023-03-08T14:07:29.227Z,98089.54
2023-03-08T14:09:57.923Z,98087.48
2023-03-08T14:12:28.664Z,98100.55
2023-03-08T14:15:03.256Z,98101.13
2023-03-08T14:17:34.808Z,98101.71
2023-03-08T14:20:20.265Z,98113.12
2023-03-08T14:22:53.346Z,98112.89
2023-03-08T14:25:30.618Z,98108.65
2023-03-08T14:27:59.617Z,98102.11
2023-03-08T14:30:30.189Z,98098.80
2023-03-08T14:33:41.841Z,98106.40
2023-03-08T14:36:10.519Z,98112.73
2023-03-08T14:38:38.567Z,98119.95
2023-03-08T14:41:06.911Z,98123.02
2023-03-08T14:43:34.869Z,98120.48
2023-03-08T14:46:06.954Z,98127.25
2023-03-08T14:48:36.410Z,98129.85
2023-03-08T14:51:25.335Z,98127.35
2023-03-08T14:54:02.134Z,98133.12
2023-03-08T14:56:33.235Z,98127.73
2023-03-08T14:59:02.422Z,98131.46
2023-03-08T15:01:35.711Z,98134.05
2023-03-08T15:04:05.101Z,98135.09
2023-03-08T15:06:34.937Z,98137.50
2023-03-08T15:09:04.108Z,98134.78
2023-03-08T15:11:32.173Z,98147.45
2023-03-08T15:14:00.215Z,98150.17
2023-03-08T15:16:31.210Z,98149.61
2023-03-08T15:18:59.572Z,98150.32
2023-03-08T15:21:28.648Z,98154.11
2023-03-08T15:23:57.914Z,98150.23
2023-03-08T15:26:28.262Z,98153.45
2023-03-08T15:28:57.657Z,98163.56
2023-03-08T15:31:27.067Z,98164.52
2023-03-08T15:33:55.230Z,98170.86
2023-03-08T15:36:25.430Z,98173.90
2023-03-08T15:38:53.561Z,98176.29
2023-03-08T15:41:22.425Z,98174.94
2023-03-08T15:43:51.543Z,98172.37
2023-03-08T15:46:21.983Z,98169.77
2023-03-08T15:48:51.353Z,98178.52
2023-03-08T15:51:21.184Z,98178.16
2023-03-08T15:53:49.309Z,98187.89
2023-03-08T15:56:17.692Z,98196.73
2023-03-08T15:58:46.784Z,98202.39
2023-03-08T16:01:14.874Z,98216.23
2023-03-08T16:03:43.011Z,98220.10
2023-03-08T16:06:12.383Z,98217.55
2023-03-08T16:08:42.356Z,98220.62
2023-03-08T16:11:15.707Z,98220.37
2023-03-08T16:13:48.496Z,98219.48
2023-03-08T16:16:16.556Z,98219.41
2023-03-08T16:18:48.912Z,98226.48
2023-03-08T16:21:17.635Z,98227.69
2023-03-08T16:23:45.662Z,98234.27
2023-03-08T16:26:17.000Z,98239.02
2023-03-08T16:28:46.943Z,98239.13
2023-03-08T16:31:15.751Z,98242.20
2023-03-08T16:33:44.953Z,98247.13
2023-03-08T16:36:13.479Z,98249.65
2023-03-08T16:38:44.010Z,98248.55
2023-03-08T16:41:15.157Z,98256.86
2023-03-08T16:43:48.714Z,98260.15
2023-03-08T16:46:21.550Z,98264.20
2023-03-08T16:48:54.649Z,98269.89
2023-03-08T16:51:27.890Z,98273.14
2023-03-08T16:53:56.203Z,98270.55
2023-03-08T16:56:26.713Z,98270.26
2023-03-08T16:58:56.149Z,98276.54
2023-03-08T17:01:30.150Z,98280.44
2023-03-08T17:03:58.691Z,98288.60
2023-03-08T17:06:29.384Z,98290.92
2023-03-08T17:08:59.051Z,98290.82
2023-03-08T17:11:29.113Z,98299.02
2023-03-08T17:13:59.973Z,98299.25
2023-03-08T17:16:35.984Z,98297.58
2023-03-08T17:19:07.359Z,98295.53
2023-03-08T17:21:39.028Z,98294.36
2023-03-08T17:24:12.961Z,98294.58
2023-03-08T17:26:43.029Z,98300.45
2023-03-08T17:29:13.224Z,98305.10
2023-03-08T17:31:41.251Z,98303.10
2023-03-08T17:34:09.454Z,98306.63
2023-03-08T17:36:38.293Z,98305.20
2023-03-08T17:39:07.211Z,98305.54
2023-03-08T17:41:38.842Z,98308.63
2023-03-08T17:44:07.024Z,98306.84
2023-03-08T17:46:35.188Z,98309.57
2023-03-08T17:49:03.940Z,98312.92
2023-03-08T17:51:32.869Z,98308.22
2023-03-08T17:54:07.612Z,98301.88
2023-03-08T17:56:38.685Z,98301.67
2023-03-08T17:59:08.013Z,98304.80
2023-03-08T18:01:37.957Z,98307.23
2023-03-08T18:04:07.486Z,98310.58
2023-03-08T18:06:38.274Z,98310.77
2023-03-08T18:09:12.417Z,98310.23
2023-03-08T18:11:41.562Z,98320.73
2023-03-08T18:14:12.134Z,98328.98
2023-03-08T18:16:41.444Z,98335.86
2023-03-08T18:19:16.853Z,98342.14
2023-03-08T18:21:54.107Z,98345.23
2023-03-08T18:24:22.223Z,98351.37
2023-03-08T18:26:53.841Z,98351.60
2023-03-08T18:29:22.043Z,98350.14
2023-03-08T18:31:50.405Z,98350.15
2023-03-08T18:34:18.890Z,98352.85
2023-03-08T18:36:46.946Z,98357.17
2023-03-08T18:39:15.016Z,98359.14
2023-03-08T18:41:43.150Z,98359.84
2023-03-08T18:44:14.694Z,98365.22
2023-03-08T18:46:44.059Z,98368.48
2023-03-08T18:49:12.811Z,98368.98
2023-03-08T18:51:41.884Z,98372.55
2023-03-08T18:54:20.542Z,98370.60
2023-03-08T18:56:50.072Z,98372.38
2023-03-08T18:59:18.148Z,98367.80
2023-03-08T19:01:50.389Z,98370.11
2023-03-08T19:04:18.813Z,98370.48
2023-03-08T19:06:47.009Z,98373.05
2023-03-08T19:09:17.213Z,98366.17
2023-03-08T19:11:48.536Z,98356.48
2023-03-08T19:14:16.897Z,98353.02
2023-03-08T19:16:46.503Z,98352.11
2023-03-08T19:19:15.445Z,98357.69
2023-03-08T19:21:46.686Z,98360.29
2023-03-08T19:24:16.746Z,98360.58
2023-03-08T19:26:47.574Z,98362.98
2023-03-08T19:29:16.983Z,98369.27
2023-03-08T19:31:48.896Z,98370.78
2023-03-08T19:34:21.833Z,98375.26
2023-03-08T19:36:50.204Z,98373.64
2023-03-08T19:39:21.737Z,98376.21
2023-03-08T19:41:55.727Z,98378.52
2023-03-08T19:44:24.061Z,98378.22
2023-03-08T19:49:49.799Z,98385.33
2023-03-08T19:52:18.368Z,98390.65
2023-03-08T19:54:49.383Z,98388.72
2023-03-08T19:57:17.713Z,98384.63
2023-03-08T19:59:45.878Z,98381.60
2023-03-08T20:02:20.475Z,98380.30
2023-03-08T20:04:48.718Z,98385.34
2023-03-08T20:07:17.391Z,98390.23
2023-03-08T20:09:46.109Z,98390.51
2023-03-08T20:12:19.231Z,98393.07
2023-03-08T20:14:50.365Z,98387.91
2023-03-08T20:17:18.434Z,98385.33
2023-03-08T20:19:50.351Z,98386.08
2023-03-08T20:22:18.461Z,98381.07
2023-03-08T20:24:52.229Z,98380.33
2023-03-08T20:27:21.106Z,98380.29
2023-03-08T20:29:51.839Z,98376.68
2023-03-08T20:32:20.512Z,98376.61
2023-03-08T20:34:49.395Z,98378.69
2023-03-08T20:37:19.855Z,98376.75
2023-03-08T20:39:54.452Z,98375.61
2023-03-08T20:42:26.990Z,98377.91
2023-03-08T20:44:55.226Z,98373.04
2023-03-08T20:47:23.565Z,98370.11
2023-03-08T20:49:51.844Z,98364.23
2023-03-08T20:52:20.202Z,98362.56
2023-03-08T20:54:48.298Z,98351.73
2023-03-08T20:57:16.356Z,98343.27
2023-03-08T20:59:44.620Z,98340.72
2023-03-08T21:02:12.825Z,98344.17
2023-03-08T21:04:41.015Z,98343.65
2023-03-08T21:07:13.000Z,98342.08
2023-03-08T21:09:43.674Z,98334.73
2023-03-08T21:12:11.778Z,98329.72
2023-03-08T21:14:45.128Z,98331.88
2023-03-08T21:17:13.308Z,98329.61
2023-03-08T21:19:41.282Z,98330.33
2023-03-08T21:22:10.781Z,98325.62
2023-03-08T21:24:39.416Z,98320.34
2023-03-08T21:27:10.910Z,98316.43
2023-03-08T21:29:38.981Z,98319.39
2023-03-08T21:32:06.994Z,98314.95
2023-03-08T21:34:35.562Z,98309.47
2023-03-08T21:37:10.125Z,98312.85
2023-03-08T21:39:38.266Z,98311.84
2023-03-08T21:42:06.943Z,98310.08
2023-03-08T21:44:35.482Z,98309.96
2023-03-08T21:47:08.739Z,98313.63
2023-03-08T21:49:37.532Z,98314.21
2023-03-08T21:52:09.805Z,98315.33
2023-03-08T21:54:38.215Z,98316.18
2023-03-08T21:57:06.350Z,98318.33
2023-03-08T21:59:34.500Z,98319.71
2023-03-08T22:02:02.937Z,98318.05
2023-03-08T22:04:31.188Z,98311.94
2023-03-08T22:06:59.243Z,98307.78
2023-03-08T22:09:29.801Z,98306.02
2023-03-08T22:11:59.695Z,98300.18
2023-03-08T22:14:28.439Z,98301.13
2023-03-08T22:17:03.301Z,98304.48
2023-03-08T22:19:32.163Z,98300.98
2023-03-08T22:22:00.956Z,98302.52
2023-03-08T22:24:32.994Z,98297.77
2023-03-08T22:27:01.649Z,98301.90
2023-03-08T22:29:29.786Z,98301.26
2023-03-08T22:31:57.904Z,98301.67
2023-03-08T22:34:25.919Z,98305.55
2023-03-08T22:36:55.175Z,98308.52
2023-03-08T22:39:23.605Z,98306.19
2023-03-08T22:41:51.632Z,98306.45
2023-03-08T22:44:19.814Z,98307.46
2023-03-08T22:46:48.645Z,98302.18
2023-03-08T22:49:17.165Z,98299.47
2023-03-08T22:51:45.453Z,98291.20
2023-03-08T22:54:18.189Z,98287.59
2023-03-08T22:56:47.019Z,98291.10
2023-03-08T22:59:16.186Z,98291.27
2023-03-08T23:01:44.588Z,98290.17
2023-03-08T23:04:13.679Z,98290.60
2023-03-08T23:06:43.337Z,98293.10
2023-03-08T23:09:12.902Z,98290.56
2023-03-08T23:11:45.602Z,98285.31
2023-03-08T23:14:16.681Z,98286.10
2023-03-08T23:16:45.994Z,98280.64
2023-03-08T23:19:17.268Z,98276.82
2023-03-08T23:22:05.199Z,98279.06
2023-03-08T23:24:40.802Z,98276.14
2023-03-08T23:27:09.881Z,98270.13
2023-03-08T23:29:38.113Z,98262.05
2023-03-08T23:32:07.336Z,98259.23
